Pagrindinis puslapis
METAR-TAF:

METAR-TAF

Oro uostai :

Hobbs, Naujoji Meksika, Jungtinės Amerikos Valstijos

platuma: 32-41N, ilguma: 103-13W, Aukštis: 1115 m

Dabartinis oras

Ataskaita buvo paskelbta 10 minutes, ne 10:55 UTC
Vėjas 7 kt iš Rytų
Temperatūra 16°C
Drėgmė 59%
Slėgis 1025 hPa
Matomumas: 16.1 km
Giedras dangus

METAR: KHOB 291055Z AUTO 08007KT 10SM CLR 16/08 A3027 RMK AO2

Laikas: 05:05 (11:05 UTC)

Prognozė

Ataskaita buvo paskelbta 5 valandos ir 45 minutes, ne 05:20 UTC
Prognozė galioja nuo 29 metu 06 UTC su 30 metu 06 UTC
Vėjas 9 kt iš Rytų/Pietryčių
Matomumas: 10 km
Mažai debesys ne aukštis 25000 ft

TAF: KHOB 290520Z 2906/3006 11009KT P6SM FEW250

Orai ataskaitas ir orų prognozės (METAR, TAF).

turimą stotys yra geltonos ir raudonos taškus žemėlapyje.

Perkelti pele per norėdami pamatyti stoties vardą.

Tada spustelėkite, norėdami matyti oro stebėjimo ir prognozės.

Norėdami pakeisti žemėlapį: spustelėkite ant žalios mygtukų su juodo kryžiaus žemyn,; žalią mygtuką su brūkšneliu, jei norite nutolinti; arba žalių rodyklių gretimoms žemėlapius.


METAR-TAF: